Pulaski, Mississippi
Current Conditions -  °F | °C
As of 3:54 AM on Sunday 23 Nov 2014 (Local Time) from KJAN Reporting Station
Overcast Overcast  
Wind Chill: 61°   Ceiling: 700
Heat Index: 61°   Visibility: 10mi
Dew Point: 58°   Wind: 12mph
Humidity: 90%   Direction: 140°SE
Pressure: 29.79"   Gusts: NA
Location:  32.27°N, 89.6°W
Report Text: KJAN 230954Z AUTO 14010KT 10SM OVC007 16/14 A2979 RMK AO2 SLP083 T01610144
Loading
Personal Weather Stations






























Interactive Weather Map New forecast layout! Learn more

10-Day Weather Forecast

Advertisements
Track Severe Weather on mobile